sensor_id;sensor_type;location;lat;lon;timestamp;P1;durP1;ratioP1;P2;durP2;ratioP2
4597;SDS011;62772;48.646;8.906;2023-06-04T00:00:55;11.57;;;7.80;;
4597;SDS011;62772;48.646;8.906;2023-06-04T00:05:58;13.13;;;7.67;;
4597;SDS011;62772;48.646;8.906;2023-06-04T00:10:58;27.07;;;14.00;;
4597;SDS011;62772;48.646;8.906;2023-06-04T00:16:00;14.70;;;8.57;;
4597;SDS011;62772;48.646;8.906;2023-06-04T00:21:00;14.13;;;8.13;;
4597;SDS011;62772;48.646;8.906;2023-06-04T00:26:00;13.43;;;7.53;;
4597;SDS011;62772;48.646;8.906;2023-06-04T00:31:04;13.33;;;8.30;;
4597;SDS011;62772;48.646;8.906;2023-06-04T00:36:06;14.27;;;8.60;;
4597;SDS011;62772;48.646;8.906;2023-06-04T00:41:06;16.00;;;8.47;;
4597;SDS011;62772;48.646;8.906;2023-06-04T00:46:07;14.40;;;7.67;;
4597;SDS011;62772;48.646;8.906;2023-06-04T00:51:08;18.90;;;8.77;;
4597;SDS011;62772;48.646;8.906;2023-06-04T00:56:08;14.20;;;7.90;;
4597;SDS011;62772;48.646;8.906;2023-06-04T01:01:15;17.70;;;8.00;;
4597;SDS011;62772;48.646;8.906;2023-06-04T01:06:38;14.13;;;8.10;;
4597;SDS011;62772;48.646;8.906;2023-06-04T01:11:43;11.00;;;7.77;;
4597;SDS011;62772;48.646;8.906;2023-06-04T01:16:51;15.20;;;8.53;;
4597;SDS011;62772;48.646;8.906;2023-06-04T01:22:02;13.07;;;8.13;;
4597;SDS011;62772;48.646;8.906;2023-06-04T01:27:10;13.20;;;8.60;;
4597;SDS011;62772;48.646;8.906;2023-06-04T01:32:12;11.77;;;7.87;;
4597;SDS011;62772;48.646;8.906;2023-06-04T01:37:12;17.20;;;8.77;;
4597;SDS011;62772;48.646;8.906;2023-06-04T01:42:13;13.70;;;8.00;;
4597;SDS011;62772;48.646;8.906;2023-06-04T01:47:14;13.00;;;8.63;;
4597;SDS011;62772;48.646;8.906;2023-06-04T01:52:15;15.00;;;8.27;;
4597;SDS011;62772;48.646;8.906;2023-06-04T01:57:16;15.30;;;9.30;;
4597;SDS011;62772;48.646;8.906;2023-06-04T02:02:17;11.27;;;7.87;;
4597;SDS011;62772;48.646;8.906;2023-06-04T02:07:18;16.13;;;9.00;;
4597;SDS011;62772;48.646;8.906;2023-06-04T02:12:22;14.17;;;8.90;;
4597;SDS011;62772;48.646;8.906;2023-06-04T02:17:22;15.60;;;8.90;;
4597;SDS011;62772;48.646;8.906;2023-06-04T02:22:23;12.47;;;7.97;;
4597;SDS011;62772;48.646;8.906;2023-06-04T02:27:24;14.73;;;9.10;;
4597;SDS011;62772;48.646;8.906;2023-06-04T02:32:24;14.80;;;8.93;;
4597;SDS011;62772;48.646;8.906;2023-06-04T02:37:26;13.97;;;8.70;;
4597;SDS011;62772;48.646;8.906;2023-06-04T02:42:26;14.40;;;9.23;;
4597;SDS011;62772;48.646;8.906;2023-06-04T02:47:27;16.10;;;8.90;;
4597;SDS011;62772;48.646;8.906;2023-06-04T02:52:27;15.43;;;9.23;;
4597;SDS011;62772;48.646;8.906;2023-06-04T02:57:28;11.67;;;8.00;;
4597;SDS011;62772;48.646;8.906;2023-06-04T03:02:30;14.63;;;8.73;;
4597;SDS011;62772;48.646;8.906;2023-06-04T03:07:30;12.70;;;8.63;;
4597;SDS011;62772;48.646;8.906;2023-06-04T03:12:32;14.57;;;9.23;;
4597;SDS011;62772;48.646;8.906;2023-06-04T03:17:32;15.97;;;9.40;;
4597;SDS011;62772;48.646;8.906;2023-06-04T03:22:33;11.83;;;8.20;;
4597;SDS011;62772;48.646;8.906;2023-06-04T03:27:35;12.30;;;8.63;;
4597;SDS011;62772;48.646;8.906;2023-06-04T03:32:37;16.50;;;9.23;;
4597;SDS011;62772;48.646;8.906;2023-06-04T03:37:37;13.87;;;8.60;;
4597;SDS011;62772;48.646;8.906;2023-06-04T03:42:38;13.60;;;8.60;;
4597;SDS011;62772;48.646;8.906;2023-06-04T03:47:39;15.23;;;8.63;;
4597;SDS011;62772;48.646;8.906;2023-06-04T03:52:41;17.07;;;8.80;;
4597;SDS011;62772;48.646;8.906;2023-06-04T03:57:42;16.40;;;8.90;;
4597;SDS011;62772;48.646;8.906;2023-06-04T04:02:43;13.50;;;8.70;;
4597;SDS011;62772;48.646;8.906;2023-06-04T04:07:51;12.33;;;8.10;;
4597;SDS011;62772;48.646;8.906;2023-06-04T04:12:56;13.50;;;8.67;;
4597;SDS011;62772;48.646;8.906;2023-06-04T04:17:58;13.60;;;8.87;;
4597;SDS011;62772;48.646;8.906;2023-06-04T04:22:59;13.57;;;9.00;;
4597;SDS011;62772;48.646;8.906;2023-06-04T04:28:00;13.77;;;8.63;;
4597;SDS011;62772;48.646;8.906;2023-06-04T04:33:03;16.30;;;9.10;;
4597;SDS011;62772;48.646;8.906;2023-06-04T04:38:11;12.30;;;7.80;;
4597;SDS011;62772;48.646;8.906;2023-06-04T04:43:39;13.80;;;8.67;;
4597;SDS011;62772;48.646;8.906;2023-06-04T04:48:54;13.40;;;8.17;;
4597;SDS011;62772;48.646;8.906;2023-06-04T04:53:54;14.23;;;9.33;;
4597;SDS011;62772;48.646;8.906;2023-06-04T04:58:55;14.27;;;8.80;;
4597;SDS011;62772;48.646;8.906;2023-06-04T05:03:56;12.97;;;8.20;;
4597;SDS011;62772;48.646;8.906;2023-06-04T05:08:57;14.43;;;9.20;;
4597;SDS011;62772;48.646;8.906;2023-06-04T05:13:57;16.00;;;9.10;;
4597;SDS011;62772;48.646;8.906;2023-06-04T05:18:58;14.40;;;9.63;;
4597;SDS011;62772;48.646;8.906;2023-06-04T05:24:02;13.83;;;9.07;;
4597;SDS011;62772;48.646;8.906;2023-06-04T05:29:07;16.30;;;9.27;;
4597;SDS011;62772;48.646;8.906;2023-06-04T05:34:13;15.03;;;8.57;;
4597;SDS011;62772;48.646;8.906;2023-06-04T05:39:17;12.50;;;7.63;;
4597;SDS011;62772;48.646;8.906;2023-06-04T05:44:33;15.93;;;8.73;;
4597;SDS011;62772;48.646;8.906;2023-06-04T05:49:34;14.40;;;8.90;;
4597;SDS011;62772;48.646;8.906;2023-06-04T05:54:36;11.67;;;7.57;;
4597;SDS011;62772;48.646;8.906;2023-06-04T05:59:40;10.70;;;6.57;;
4597;SDS011;62772;48.646;8.906;2023-06-04T06:04:44;10.10;;;5.63;;
4597;SDS011;62772;48.646;8.906;2023-06-04T06:09:45;9.20;;;5.90;;
4597;SDS011;62772;48.646;8.906;2023-06-04T06:14:45;7.93;;;5.50;;
4597;SDS011;62772;48.646;8.906;2023-06-04T06:19:47;8.87;;;5.47;;
4597;SDS011;62772;48.646;8.906;2023-06-04T06:24:47;6.93;;;5.00;;
4597;SDS011;62772;48.646;8.906;2023-06-04T06:29:51;9.27;;;5.67;;
4597;SDS011;62772;48.646;8.906;2023-06-04T06:34:51;8.80;;;5.70;;
4597;SDS011;62772;48.646;8.906;2023-06-04T06:39:52;9.67;;;6.03;;
4597;SDS011;62772;48.646;8.906;2023-06-04T06:44:52;8.00;;;4.80;;
4597;SDS011;62772;48.646;8.906;2023-06-04T06:49:52;9.30;;;5.47;;
4597;SDS011;62772;48.646;8.906;2023-06-04T06:54:53;7.50;;;5.13;;
4597;SDS011;62772;48.646;8.906;2023-06-04T06:59:53;7.60;;;4.53;;
4597;SDS011;62772;48.646;8.906;2023-06-04T07:04:54;12.47;;;5.17;;
4597;SDS011;62772;48.646;8.906;2023-06-04T07:09:55;6.97;;;4.50;;
4597;SDS011;62772;48.646;8.906;2023-06-04T07:14:56;7.57;;;4.57;;
4597;SDS011;62772;48.646;8.906;2023-06-04T07:19:56;6.63;;;4.40;;
4597;SDS011;62772;48.646;8.906;2023-06-04T07:24:57;6.33;;;4.50;;
4597;SDS011;62772;48.646;8.906;2023-06-04T07:29:57;8.87;;;4.57;;
4597;SDS011;62772;48.646;8.906;2023-06-04T07:34:57;7.00;;;4.43;;
4597;SDS011;62772;48.646;8.906;2023-06-04T07:39:58;6.87;;;4.47;;
4597;SDS011;62772;48.646;8.906;2023-06-04T07:44:58;7.10;;;4.07;;
4597;SDS011;62772;48.646;8.906;2023-06-04T07:49:59;7.17;;;4.07;;
4597;SDS011;62772;48.646;8.906;2023-06-04T07:55:00;9.03;;;4.33;;
4597;SDS011;62772;48.646;8.906;2023-06-04T08:00:01;10.83;;;4.67;;
4597;SDS011;62772;48.646;8.906;2023-06-04T08:05:12;10.33;;;4.33;;
4597;SDS011;62772;48.646;8.906;2023-06-04T08:10:13;5.97;;;4.07;;
4597;SDS011;62772;48.646;8.906;2023-06-04T08:15:14;8.20;;;4.23;;
4597;SDS011;62772;48.646;8.906;2023-06-04T08:20:15;6.80;;;4.27;;
4597;SDS011;62772;48.646;8.906;2023-06-04T08:25:15;6.30;;;4.00;;
4597;SDS011;62772;48.646;8.906;2023-06-04T08:30:16;8.00;;;4.17;;
4597;SDS011;62772;48.646;8.906;2023-06-04T08:35:16;5.63;;;3.87;;
4597;SDS011;62772;48.646;8.906;2023-06-04T08:40:17;7.70;;;3.80;;
4597;SDS011;62772;48.646;8.906;2023-06-04T08:45:17;5.93;;;4.10;;
4597;SDS011;62772;48.646;8.906;2023-06-04T08:50:21;8.60;;;4.07;;
4597;SDS011;62772;48.646;8.906;2023-06-04T08:55:22;6.97;;;3.90;;
4597;SDS011;62772;48.646;8.906;2023-06-04T09:00:23;7.37;;;4.50;;
4597;SDS011;62772;48.646;8.906;2023-06-04T09:05:24;6.77;;;4.17;;
4597;SDS011;62772;48.646;8.906;2023-06-04T09:10:25;8.70;;;4.03;;
4597;SDS011;62772;48.646;8.906;2023-06-04T09:15:26;6.67;;;4.17;;
4597;SDS011;62772;48.646;8.906;2023-06-04T09:20:27;7.20;;;4.30;;
4597;SDS011;62772;48.646;8.906;2023-06-04T09:25:28;10.17;;;4.50;;
4597;SDS011;62772;48.646;8.906;2023-06-04T09:30:29;6.23;;;3.97;;
4597;SDS011;62772;48.646;8.906;2023-06-04T09:35:29;6.00;;;3.97;;
4597;SDS011;62772;48.646;8.906;2023-06-04T09:40:36;8.60;;;4.20;;
4597;SDS011;62772;48.646;8.906;2023-06-04T09:45:37;8.53;;;4.83;;
4597;SDS011;62772;48.646;8.906;2023-06-04T09:50:38;5.80;;;3.73;;
4597;SDS011;62772;48.646;8.906;2023-06-04T09:55:40;9.50;;;4.90;;
4597;SDS011;62772;48.646;8.906;2023-06-04T10:00:40;6.00;;;4.17;;
4597;SDS011;62772;48.646;8.906;2023-06-04T10:05:42;10.10;;;4.80;;
4597;SDS011;62772;48.646;8.906;2023-06-04T10:10:43;9.97;;;4.47;;
4597;SDS011;62772;48.646;8.906;2023-06-04T10:15:46;8.73;;;4.50;;
4597;SDS011;62772;48.646;8.906;2023-06-04T10:20:47;9.30;;;4.80;;
4597;SDS011;62772;48.646;8.906;2023-06-04T10:25:52;7.50;;;4.57;;
4597;SDS011;62772;48.646;8.906;2023-06-04T10:30:54;9.43;;;4.53;;
4597;SDS011;62772;48.646;8.906;2023-06-04T10:35:54;12.60;;;5.00;;
4597;SDS011;62772;48.646;8.906;2023-06-04T10:40:58;5.97;;;4.13;;
4597;SDS011;62772;48.646;8.906;2023-06-04T10:45:58;9.47;;;5.10;;
4597;SDS011;62772;48.646;8.906;2023-06-04T10:51:11;10.10;;;5.00;;
4597;SDS011;62772;48.646;8.906;2023-06-04T10:56:12;8.40;;;4.93;;
4597;SDS011;62772;48.646;8.906;2023-06-04T11:01:22;11.10;;;5.17;;
4597;SDS011;62772;48.646;8.906;2023-06-04T11:06:28;7.83;;;4.40;;
4597;SDS011;62772;48.646;8.906;2023-06-04T11:11:28;7.50;;;5.17;;
4597;SDS011;62772;48.646;8.906;2023-06-04T11:16:31;8.67;;;4.83;;
4597;SDS011;62772;48.646;8.906;2023-06-04T11:21:35;12.90;;;4.50;;
4597;SDS011;62772;48.646;8.906;2023-06-04T11:26:38;7.63;;;4.67;;
4597;SDS011;62772;48.646;8.906;2023-06-04T11:31:42;7.27;;;4.80;;
4597;SDS011;62772;48.646;8.906;2023-06-04T11:36:47;8.50;;;4.43;;
4597;SDS011;62772;48.646;8.906;2023-06-04T11:41:50;9.60;;;5.30;;
4597;SDS011;62772;48.646;8.906;2023-06-04T11:46:51;7.20;;;4.23;;
4597;SDS011;62772;48.646;8.906;2023-06-04T11:51:54;8.53;;;4.80;;
4597;SDS011;62772;48.646;8.906;2023-06-04T11:56:55;8.43;;;5.13;;
4597;SDS011;62772;48.646;8.906;2023-06-04T12:01:55;6.23;;;4.33;;
4597;SDS011;62772;48.646;8.906;2023-06-04T12:06:57;7.90;;;4.50;;
4597;SDS011;62772;48.646;8.906;2023-06-04T12:12:05;11.43;;;4.40;;
4597;SDS011;62772;48.646;8.906;2023-06-04T12:17:08;7.43;;;4.50;;
4597;SDS011;62772;48.646;8.906;2023-06-04T12:22:09;8.20;;;4.93;;
4597;SDS011;62772;48.646;8.906;2023-06-04T12:27:09;6.17;;;3.97;;
4597;SDS011;62772;48.646;8.906;2023-06-04T12:32:11;9.20;;;4.90;;
4597;SDS011;62772;48.646;8.906;2023-06-04T12:37:11;7.00;;;4.47;;
4597;SDS011;62772;48.646;8.906;2023-06-04T12:42:12;6.47;;;4.30;;
4597;SDS011;62772;48.646;8.906;2023-06-04T12:47:12;8.00;;;4.80;;
4597;SDS011;62772;48.646;8.906;2023-06-04T12:52:13;7.47;;;4.47;;
4597;SDS011;62772;48.646;8.906;2023-06-04T12:57:14;6.90;;;4.23;;
4597;SDS011;62772;48.646;8.906;2023-06-04T13:02:15;14.43;;;4.90;;
4597;SDS011;62772;48.646;8.906;2023-06-04T13:07:15;7.03;;;4.33;;
4597;SDS011;62772;48.646;8.906;2023-06-04T13:12:16;6.30;;;4.10;;
4597;SDS011;62772;48.646;8.906;2023-06-04T13:17:16;6.90;;;4.87;;
4597;SDS011;62772;48.646;8.906;2023-06-04T13:22:17;6.13;;;4.40;;
4597;SDS011;62772;48.646;8.906;2023-06-04T13:27:17;7.50;;;4.47;;
4597;SDS011;62772;48.646;8.906;2023-06-04T13:32:18;11.30;;;4.50;;
4597;SDS011;62772;48.646;8.906;2023-06-04T13:37:18;8.60;;;4.20;;
4597;SDS011;62772;48.646;8.906;2023-06-04T13:42:19;9.30;;;4.83;;
4597;SDS011;62772;48.646;8.906;2023-06-04T13:47:19;7.47;;;4.37;;
4597;SDS011;62772;48.646;8.906;2023-06-04T13:52:21;6.03;;;4.20;;
4597;SDS011;62772;48.646;8.906;2023-06-04T13:57:22;10.23;;;4.40;;
4597;SDS011;62772;48.646;8.906;2023-06-04T14:02:22;9.90;;;4.30;;
4597;SDS011;62772;48.646;8.906;2023-06-04T14:07:22;5.10;;;3.57;;
4597;SDS011;62772;48.646;8.906;2023-06-04T14:12:23;5.43;;;3.53;;
4597;SDS011;62772;48.646;8.906;2023-06-04T14:17:24;5.70;;;3.97;;
4597;SDS011;62772;48.646;8.906;2023-06-04T14:22:25;6.87;;;4.43;;
4597;SDS011;62772;48.646;8.906;2023-06-04T14:27:25;6.30;;;3.53;;
4597;SDS011;62772;48.646;8.906;2023-06-04T14:32:25;5.73;;;3.83;;
4597;SDS011;62772;48.646;8.906;2023-06-04T14:37:26;7.97;;;3.87;;
4597;SDS011;62772;48.646;8.906;2023-06-04T14:42:26;6.20;;;4.00;;
4597;SDS011;62772;48.646;8.906;2023-06-04T14:47:27;5.97;;;3.97;;
4597;SDS011;62772;48.646;8.906;2023-06-04T14:52:27;7.30;;;3.80;;
4597;SDS011;62772;48.646;8.906;2023-06-04T14:57:31;5.50;;;3.90;;
4597;SDS011;62772;48.646;8.906;2023-06-04T15:02:31;7.23;;;4.00;;
4597;SDS011;62772;48.646;8.906;2023-06-04T15:07:32;5.60;;;3.33;;
4597;SDS011;62772;48.646;8.906;2023-06-04T15:12:33;5.93;;;3.93;;
4597;SDS011;62772;48.646;8.906;2023-06-04T15:17:34;5.10;;;3.50;;
4597;SDS011;62772;48.646;8.906;2023-06-04T15:22:35;9.33;;;4.23;;
4597;SDS011;62772;48.646;8.906;2023-06-04T15:27:35;6.90;;;3.70;;
4597;SDS011;62772;48.646;8.906;2023-06-04T15:32:36;6.40;;;4.40;;
4597;SDS011;62772;48.646;8.906;2023-06-04T15:37:36;7.30;;;3.57;;
4597;SDS011;62772;48.646;8.906;2023-06-04T15:42:37;5.77;;;3.50;;
4597;SDS011;62772;48.646;8.906;2023-06-04T15:47:37;6.97;;;4.20;;
4597;SDS011;62772;48.646;8.906;2023-06-04T15:52:38;7.53;;;3.87;;
4597;SDS011;62772;48.646;8.906;2023-06-04T15:57:38;5.20;;;3.53;;
4597;SDS011;62772;48.646;8.906;2023-06-04T16:02:39;6.30;;;3.87;;
4597;SDS011;62772;48.646;8.906;2023-06-04T16:07:39;5.33;;;3.87;;
4597;SDS011;62772;48.646;8.906;2023-06-04T16:12:40;8.60;;;3.47;;
4597;SDS011;62772;48.646;8.906;2023-06-04T16:17:40;5.33;;;3.00;;
4597;SDS011;62772;48.646;8.906;2023-06-04T16:22:42;6.43;;;3.37;;
4597;SDS011;62772;48.646;8.906;2023-06-04T16:27:44;5.10;;;3.40;;
4597;SDS011;62772;48.646;8.906;2023-06-04T16:32:45;5.67;;;3.67;;
4597;SDS011;62772;48.646;8.906;2023-06-04T16:37:45;4.53;;;3.03;;
4597;SDS011;62772;48.646;8.906;2023-06-04T16:42:46;4.43;;;3.07;;
4597;SDS011;62772;48.646;8.906;2023-06-04T16:47:46;4.10;;;2.83;;
4597;SDS011;62772;48.646;8.906;2023-06-04T16:52:48;7.90;;;3.10;;
4597;SDS011;62772;48.646;8.906;2023-06-04T16:57:49;5.90;;;3.33;;
4597;SDS011;62772;48.646;8.906;2023-06-04T17:02:49;5.10;;;3.23;;
4597;SDS011;62772;48.646;8.906;2023-06-04T17:07:50;6.83;;;3.30;;
4597;SDS011;62772;48.646;8.906;2023-06-04T17:12:51;6.10;;;3.73;;
4597;SDS011;62772;48.646;8.906;2023-06-04T17:17:52;14.80;;;7.03;;
4597;SDS011;62772;48.646;8.906;2023-06-04T17:22:57;5.47;;;3.23;;
4597;SDS011;62772;48.646;8.906;2023-06-04T17:27:59;18.23;;;8.57;;
4597;SDS011;62772;48.646;8.906;2023-06-04T17:32:59;25.80;;;10.97;;
4597;SDS011;62772;48.646;8.906;2023-06-04T17:38:00;13.63;;;8.40;;
4597;SDS011;62772;48.646;8.906;2023-06-04T17:43:00;10.23;;;3.13;;
4597;SDS011;62772;48.646;8.906;2023-06-04T17:48:01;10.50;;;5.03;;
4597;SDS011;62772;48.646;8.906;2023-06-04T17:53:01;26.57;;;13.30;;
4597;SDS011;62772;48.646;8.906;2023-06-04T17:58:02;12.10;;;4.47;;
4597;SDS011;62772;48.646;8.906;2023-06-04T18:03:03;9.90;;;4.80;;
4597;SDS011;62772;48.646;8.906;2023-06-04T18:08:04;7.03;;;3.90;;
4597;SDS011;62772;48.646;8.906;2023-06-04T18:13:04;13.08;;;8.56;;
4597;SDS011;62772;48.646;8.906;2023-06-04T18:18:05;18.10;;;8.93;;
4597;SDS011;62772;48.646;8.906;2023-06-04T18:23:05;4.70;;;2.63;;
4597;SDS011;62772;48.646;8.906;2023-06-04T18:28:07;4.57;;;2.60;;
4597;SDS011;62772;48.646;8.906;2023-06-04T18:33:08;5.60;;;3.50;;
4597;SDS011;62772;48.646;8.906;2023-06-04T18:38:08;10.20;;;4.83;;
4597;SDS011;62772;48.646;8.906;2023-06-04T18:43:09;6.07;;;3.73;;
4597;SDS011;62772;48.646;8.906;2023-06-04T18:48:09;5.00;;;2.90;;
4597;SDS011;62772;48.646;8.906;2023-06-04T18:53:10;5.57;;;2.87;;
4597;SDS011;62772;48.646;8.906;2023-06-04T18:58:11;4.20;;;2.67;;
4597;SDS011;62772;48.646;8.906;2023-06-04T19:03:11;7.00;;;2.67;;
4597;SDS011;62772;48.646;8.906;2023-06-04T19:08:11;3.47;;;2.43;;
4597;SDS011;62772;48.646;8.906;2023-06-04T19:13:12;3.53;;;2.37;;
4597;SDS011;62772;48.646;8.906;2023-06-04T19:18:13;3.90;;;2.50;;
4597;SDS011;62772;48.646;8.906;2023-06-04T19:23:13;4.77;;;2.40;;
4597;SDS011;62772;48.646;8.906;2023-06-04T19:28:14;5.00;;;2.50;;
4597;SDS011;62772;48.646;8.906;2023-06-04T19:33:16;8.70;;;3.40;;
4597;SDS011;62772;48.646;8.906;2023-06-04T19:38:17;3.90;;;2.30;;
4597;SDS011;62772;48.646;8.906;2023-06-04T19:43:18;4.73;;;2.67;;
4597;SDS011;62772;48.646;8.906;2023-06-04T19:48:20;4.87;;;2.60;;
4597;SDS011;62772;48.646;8.906;2023-06-04T19:53:20;4.63;;;2.47;;
4597;SDS011;62772;48.646;8.906;2023-06-04T19:58:21;5.73;;;2.47;;
4597;SDS011;62772;48.646;8.906;2023-06-04T20:03:21;5.20;;;2.53;;
4597;SDS011;62772;48.646;8.906;2023-06-04T20:08:23;6.10;;;2.80;;
4597;SDS011;62772;48.646;8.906;2023-06-04T20:13:23;3.53;;;2.20;;
4597;SDS011;62772;48.646;8.906;2023-06-04T20:18:24;7.60;;;2.60;;
4597;SDS011;62772;48.646;8.906;2023-06-04T20:23:28;5.90;;;2.83;;
4597;SDS011;62772;48.646;8.906;2023-06-04T20:28:29;5.23;;;2.50;;
4597;SDS011;62772;48.646;8.906;2023-06-04T20:33:30;3.97;;;2.60;;
4597;SDS011;62772;48.646;8.906;2023-06-04T20:38:31;4.43;;;2.40;;
4597;SDS011;62772;48.646;8.906;2023-06-04T20:43:47;4.60;;;2.37;;
4597;SDS011;62772;48.646;8.906;2023-06-04T20:48:48;5.60;;;2.70;;
4597;SDS011;62772;48.646;8.906;2023-06-04T20:53:49;5.53;;;2.87;;
4597;SDS011;62772;48.646;8.906;2023-06-04T20:58:51;5.53;;;2.60;;
4597;SDS011;62772;48.646;8.906;2023-06-04T21:03:51;3.90;;;2.60;;
4597;SDS011;62772;48.646;8.906;2023-06-04T21:08:52;3.77;;;2.47;;
4597;SDS011;62772;48.646;8.906;2023-06-04T21:13:53;4.10;;;2.77;;
4597;SDS011;62772;48.646;8.906;2023-06-04T21:18:56;6.90;;;2.70;;
4597;SDS011;62772;48.646;8.906;2023-06-04T21:23:56;5.70;;;2.50;;
4597;SDS011;62772;48.646;8.906;2023-06-04T21:28:57;4.10;;;2.70;;
4597;SDS011;62772;48.646;8.906;2023-06-04T21:33:57;3.97;;;2.50;;
4597;SDS011;62772;48.646;8.906;2023-06-04T21:38:58;4.17;;;2.50;;
4597;SDS011;62772;48.646;8.906;2023-06-04T21:43:59;3.83;;;2.47;;
4597;SDS011;62772;48.646;8.906;2023-06-04T21:48:59;4.07;;;2.40;;
4597;SDS011;62772;48.646;8.906;2023-06-04T21:54:00;4.23;;;2.90;;
4597;SDS011;62772;48.646;8.906;2023-06-04T21:59:00;3.70;;;2.30;;
4597;SDS011;62772;48.646;8.906;2023-06-04T22:04:00;4.73;;;2.67;;
4597;SDS011;62772;48.646;8.906;2023-06-04T22:09:01;4.40;;;2.50;;
4597;SDS011;62772;48.646;8.906;2023-06-04T22:14:01;4.93;;;3.13;;
4597;SDS011;62772;48.646;8.906;2023-06-04T22:19:02;7.20;;;3.10;;
4597;SDS011;62772;48.646;8.906;2023-06-04T22:24:02;9.27;;;2.93;;
4597;SDS011;62772;48.646;8.906;2023-06-04T22:29:03;4.70;;;2.60;;
4597;SDS011;62772;48.646;8.906;2023-06-04T22:34:04;4.90;;;3.20;;
4597;SDS011;62772;48.646;8.906;2023-06-04T22:39:05;6.43;;;3.10;;
4597;SDS011;62772;48.646;8.906;2023-06-04T22:44:05;10.97;;;3.43;;
4597;SDS011;62772;48.646;8.906;2023-06-04T22:49:06;6.90;;;3.10;;
4597;SDS011;62772;48.646;8.906;2023-06-04T22:54:06;10.87;;;2.70;;
4597;SDS011;62772;48.646;8.906;2023-06-04T22:59:07;5.50;;;3.27;;
4597;SDS011;62772;48.646;8.906;2023-06-04T23:04:07;5.80;;;2.93;;
4597;SDS011;62772;48.646;8.906;2023-06-04T23:09:07;4.77;;;3.20;;
4597;SDS011;62772;48.646;8.906;2023-06-04T23:14:08;4.70;;;3.10;;
4597;SDS011;62772;48.646;8.906;2023-06-04T23:19:09;5.63;;;3.07;;
4597;SDS011;62772;48.646;8.906;2023-06-04T23:24:12;5.70;;;3.20;;
4597;SDS011;62772;48.646;8.906;2023-06-04T23:29:15;6.57;;;3.27;;
4597;SDS011;62772;48.646;8.906;2023-06-04T23:34:16;4.77;;;2.70;;
4597;SDS011;62772;48.646;8.906;2023-06-04T23:39:16;6.17;;;3.20;;
4597;SDS011;62772;48.646;8.906;2023-06-04T23:44:17;6.67;;;3.33;;
4597;SDS011;62772;48.646;8.906;2023-06-04T23:49:18;5.90;;;3.60;;
4597;SDS011;62772;48.646;8.906;2023-06-04T23:54:18;5.13;;;3.10;;
4597;SDS011;62772;48.646;8.906;2023-06-04T23:59:19;4.93;;;2.83;;
